createdAt,value
2022-10-29T00:00:35.870Z,0.00
2022-10-29T00:01:35.973Z,0.00
2022-10-29T00:02:35.973Z,0.00
2022-10-29T00:03:35.956Z,0.00
2022-10-29T00:04:35.983Z,0.00
2022-10-29T00:05:36.011Z,0.00
2022-10-29T00:06:36.085Z,0.00
2022-10-29T00:07:36.067Z,0.00
2022-10-29T00:08:36.098Z,0.00
2022-10-29T00:09:36.125Z,0.00
2022-10-29T00:10:36.154Z,0.00
2022-10-29T00:11:36.182Z,0.00
2022-10-29T00:12:36.212Z,0.00
2022-10-29T00:13:36.247Z,0.00
2022-10-29T00:14:36.269Z,0.00
2022-10-29T00:15:36.314Z,0.00
2022-10-29T00:16:36.325Z,0.00
2022-10-29T00:17:36.352Z,0.00
2022-10-29T00:18:36.383Z,0.00
2022-10-29T00:19:36.415Z,0.00
2022-10-29T00:20:36.438Z,0.00
2022-10-29T00:21:36.468Z,0.00
2022-10-29T00:22:36.496Z,0.00
2022-10-29T00:23:36.523Z,0.00
2022-10-29T00:24:36.554Z,0.00
2022-10-29T00:25:36.581Z,0.00
2022-10-29T00:26:36.619Z,0.00
2022-10-29T00:27:36.640Z,0.00
2022-10-29T00:28:36.668Z,0.00
2022-10-29T00:29:36.695Z,0.00
2022-10-29T00:30:36.724Z,0.00
2022-10-29T00:31:36.819Z,0.00
2022-10-29T00:32:36.780Z,0.00
2022-10-29T00:33:36.807Z,0.00
2022-10-29T00:34:36.838Z,0.00
2022-10-29T00:35:36.866Z,0.00
2022-10-29T00:36:36.894Z,0.00
2022-10-29T00:37:36.922Z,0.00
2022-10-29T00:38:36.951Z,0.00
2022-10-29T00:39:36.979Z,0.00
2022-10-29T00:40:37.008Z,0.00
2022-10-29T00:41:37.037Z,0.00
2022-10-29T00:42:37.066Z,0.00
2022-10-29T00:43:37.094Z,0.00
2022-10-29T00:44:37.123Z,0.00
2022-10-29T00:45:37.152Z,0.00
2022-10-29T00:47:37.228Z,0.00
2022-10-29T00:48:37.238Z,0.00
2022-10-29T00:49:37.266Z,0.00
2022-10-29T00:50:37.300Z,0.00
2022-10-29T00:51:37.323Z,0.00
2022-10-29T00:52:37.351Z,0.00
2022-10-29T00:53:37.381Z,0.00
2022-10-29T00:54:37.409Z,0.00
2022-10-29T00:55:37.440Z,0.00
2022-10-29T00:56:37.466Z,0.00
2022-10-29T00:57:37.494Z,0.00
2022-10-29T00:58:37.524Z,0.00
2022-10-29T00:59:37.613Z,0.00
2022-10-29T01:00:37.581Z,0.00
2022-10-29T01:01:37.848Z,0.00
2022-10-29T01:02:37.772Z,0.00
2022-10-29T01:03:37.686Z,0.00
2022-10-29T01:04:37.695Z,0.00
2022-10-29T01:05:37.724Z,0.00
2022-10-29T01:06:37.752Z,0.00
2022-10-29T01:07:37.780Z,0.00
2022-10-29T01:08:37.813Z,0.00
2022-10-29T01:09:37.838Z,0.00
2022-10-29T01:10:37.867Z,0.00
2022-10-29T01:11:37.894Z,0.00
2022-10-29T01:12:37.924Z,0.00
2022-10-29T01:13:37.953Z,0.00
2022-10-29T01:14:37.983Z,0.00
2022-10-29T01:15:38.009Z,0.00
2022-10-29T01:16:38.039Z,0.00
2022-10-29T01:17:38.069Z,0.00
2022-10-29T01:18:38.177Z,0.00
2022-10-29T01:19:38.143Z,0.00
2022-10-29T01:20:38.153Z,0.00
2022-10-29T01:21:38.182Z,0.00
2022-10-29T01:22:38.212Z,0.00
2022-10-29T01:23:38.238Z,0.00
2022-10-29T01:24:38.266Z,0.00
2022-10-29T01:25:38.294Z,0.00
2022-10-29T01:26:38.326Z,0.00
2022-10-29T01:27:38.352Z,0.00
2022-10-29T01:28:38.383Z,0.00
2022-10-29T01:29:38.409Z,0.00
2022-10-29T01:30:38.438Z,0.00
2022-10-29T01:31:38.466Z,0.00
2022-10-29T01:32:38.495Z,0.00
2022-10-29T01:33:38.523Z,0.00
2022-10-29T01:34:38.555Z,0.00
2022-10-29T01:35:38.599Z,0.00
2022-10-29T01:36:38.609Z,0.00
2022-10-29T01:37:38.639Z,0.00
2022-10-29T01:38:38.667Z,0.00
2022-10-29T01:39:38.696Z,0.00
2022-10-29T01:40:38.722Z,0.00
2022-10-29T01:41:38.750Z,0.00
2022-10-29T01:42:38.784Z,0.00
2022-10-29T01:43:38.808Z,0.00
2022-10-29T01:44:38.837Z,0.00
2022-10-29T01:45:38.863Z,0.00
2022-10-29T01:46:38.894Z,0.00
2022-10-29T01:47:38.922Z,0.00
2022-10-29T01:48:38.950Z,0.00
2022-10-29T01:49:38.982Z,0.00
2022-10-29T01:50:39.012Z,0.00
2022-10-29T01:51:39.052Z,0.00
2022-10-29T01:52:39.064Z,0.00
2022-10-29T01:53:39.092Z,0.00
2022-10-29T01:54:39.120Z,0.00
2022-10-29T01:55:39.153Z,0.00
2022-10-29T01:56:39.180Z,0.00
2022-10-29T01:57:39.240Z,0.00
2022-10-29T01:58:39.238Z,0.00
2022-10-29T01:59:51.533Z,0.00
2022-10-29T02:00:39.432Z,0.00
2022-10-29T02:01:39.421Z,0.00
2022-10-29T02:02:40.005Z,0.00
2022-10-29T02:03:39.376Z,0.00
2022-10-29T02:04:39.405Z,0.00
2022-10-29T02:05:39.434Z,0.00
2022-10-29T02:06:39.461Z,0.00
2022-10-29T02:07:39.511Z,0.00
2022-10-29T02:08:39.517Z,0.00
2022-10-29T02:09:39.547Z,0.00
2022-10-29T02:10:39.574Z,0.00
2022-10-29T02:11:39.648Z,0.00
2022-10-29T02:12:39.631Z,0.00
2022-10-29T02:13:39.665Z,0.00
2022-10-29T02:14:39.688Z,0.00
2022-10-29T02:15:39.727Z,0.00
2022-10-29T02:16:39.744Z,0.00
2022-10-29T02:17:39.774Z,0.00
2022-10-29T02:18:39.802Z,0.00
2022-10-29T02:19:39.835Z,0.00
2022-10-29T02:20:39.862Z,0.00
2022-10-29T02:21:39.888Z,0.00
2022-10-29T02:22:39.915Z,0.00
2022-10-29T02:23:39.966Z,0.00
2022-10-29T02:24:39.971Z,0.00
2022-10-29T02:25:40.105Z,0.00
2022-10-29T02:26:40.029Z,0.00
2022-10-29T02:27:40.060Z,0.00
2022-10-29T02:28:40.088Z,0.00
2022-10-29T02:29:40.116Z,0.00
2022-10-29T02:30:40.148Z,0.00
2022-10-29T02:31:40.174Z,0.00
2022-10-29T02:32:40.199Z,0.00
2022-10-29T02:33:40.229Z,0.00
2022-10-29T02:34:40.259Z,0.00
2022-10-29T02:35:40.291Z,0.00
2022-10-29T02:36:40.313Z,0.00
2022-10-29T02:37:40.346Z,0.00
2022-10-29T02:38:40.372Z,0.00
2022-10-29T02:39:40.420Z,0.00
2022-10-29T02:40:40.427Z,0.00
2022-10-29T02:41:40.457Z,0.00
2022-10-29T02:42:40.485Z,0.00
2022-10-29T02:43:40.514Z,0.00
2022-10-29T02:44:40.539Z,0.00
2022-10-29T02:45:40.573Z,0.00
2022-10-29T02:46:40.599Z,0.00
2022-10-29T02:47:40.628Z,0.00
2022-10-29T02:48:40.653Z,0.00
2022-10-29T02:49:40.684Z,0.00
2022-10-29T02:50:40.711Z,0.00
2022-10-29T02:51:40.740Z,0.00
2022-10-29T02:52:40.767Z,0.00
2022-10-29T02:53:40.800Z,0.00
2022-10-29T02:54:40.830Z,0.00
2022-10-29T02:55:40.872Z,0.00
2022-10-29T02:56:40.881Z,0.00
2022-10-29T02:57:40.911Z,0.00
2022-10-29T02:58:40.937Z,0.00
2022-10-29T02:59:40.968Z,0.00
2022-10-29T03:00:40.994Z,0.00
2022-10-29T03:01:41.121Z,0.00
2022-10-29T03:02:41.192Z,0.00
2022-10-29T03:03:41.083Z,0.00
2022-10-29T03:04:41.106Z,0.00
2022-10-29T03:05:45.111Z,0.00
2022-10-29T03:06:41.164Z,0.00
2022-10-29T03:07:41.194Z,0.00
2022-10-29T03:08:41.221Z,0.00
2022-10-29T03:09:41.249Z,0.00
2022-10-29T03:10:41.277Z,0.00
2022-10-29T03:11:41.326Z,0.00
2022-10-29T03:12:41.333Z,0.00
2022-10-29T03:13:41.393Z,0.00
2022-10-29T03:14:41.387Z,0.00
2022-10-29T03:15:41.422Z,0.00
2022-10-29T03:16:41.444Z,0.00
2022-10-29T03:17:41.476Z,0.00
2022-10-29T03:18:41.503Z,0.00
2022-10-29T03:19:41.532Z,0.00
2022-10-29T03:20:41.559Z,0.00
2022-10-29T03:21:41.599Z,0.00
2022-10-29T03:22:41.615Z,0.00
2022-10-29T03:23:41.644Z,0.00
2022-10-29T03:24:41.671Z,0.00
2022-10-29T03:25:41.701Z,0.00
2022-10-29T03:26:41.725Z,0.00
2022-10-29T03:27:41.776Z,0.00
2022-10-29T03:28:41.845Z,0.00
2022-10-29T03:29:41.813Z,0.00
2022-10-29T03:30:41.840Z,0.00
2022-10-29T03:31:41.872Z,0.00
2022-10-29T03:32:41.893Z,0.00
2022-10-29T03:33:41.924Z,0.00
2022-10-29T03:34:41.950Z,0.00
2022-10-29T03:35:42.042Z,0.00
2022-10-29T03:36:42.007Z,0.00
2022-10-29T03:37:42.037Z,0.00
2022-10-29T03:38:42.062Z,0.00
2022-10-29T03:39:42.091Z,0.00
2022-10-29T03:40:42.118Z,0.00
2022-10-29T03:41:42.148Z,0.00
2022-10-29T03:42:42.176Z,0.00
2022-10-29T03:43:42.273Z,0.00
2022-10-29T03:44:42.230Z,0.00
2022-10-29T03:45:42.260Z,0.00
2022-10-29T03:46:42.288Z,0.00
2022-10-29T03:47:42.315Z,0.00
2022-10-29T03:48:42.341Z,0.00
2022-10-29T03:49:42.371Z,0.00
2022-10-29T03:50:42.448Z,0.00
2022-10-29T03:51:42.429Z,0.00
2022-10-29T03:52:42.453Z,0.00
2022-10-29T03:53:42.482Z,0.00
2022-10-29T03:54:42.512Z,0.00
2022-10-29T03:55:42.538Z,0.00
2022-10-29T03:56:42.563Z,0.00
2022-10-29T03:57:42.595Z,0.00
2022-10-29T03:58:42.621Z,0.00
2022-10-29T03:59:44.098Z,0.00
2022-10-29T04:00:42.675Z,0.00
2022-10-29T04:01:42.868Z,0.00
2022-10-29T04:02:42.882Z,0.00
2022-10-29T04:03:42.762Z,0.00
2022-10-29T04:04:42.786Z,0.00
2022-10-29T04:05:42.818Z,0.00
2022-10-29T04:06:42.848Z,0.00
2022-10-29T04:07:42.875Z,0.00
2022-10-29T04:08:42.899Z,0.00
2022-10-29T04:09:42.928Z,0.00
2022-10-29T04:10:42.955Z,0.00
2022-10-29T04:11:42.984Z,0.00
2022-10-29T04:12:43.011Z,0.00
2022-10-29T04:13:43.039Z,0.00
2022-10-29T04:14:45.742Z,0.00
2022-10-29T04:15:43.116Z,0.00
2022-10-29T04:16:43.123Z,0.00
2022-10-29T04:17:43.154Z,0.00
2022-10-29T04:18:43.178Z,0.00
2022-10-29T04:19:43.213Z,0.00
2022-10-29T04:20:47.652Z,0.00
2022-10-29T04:28:44.131Z,0.00
2022-10-29T04:29:43.486Z,0.00
2022-10-29T04:30:43.513Z,0.00
2022-10-29T04:31:43.564Z,0.00
2022-10-29T04:32:43.570Z,0.00
2022-10-29T04:33:43.597Z,0.00
2022-10-29T04:34:43.625Z,0.00
2022-10-29T04:35:43.655Z,0.00
2022-10-29T04:36:43.684Z,0.00
2022-10-29T04:37:43.709Z,0.00
2022-10-29T04:38:43.736Z,0.00
2022-10-29T04:39:43.766Z,0.00
2022-10-29T04:40:43.791Z,0.00
2022-10-29T04:41:43.821Z,0.00
2022-10-29T04:42:43.851Z,0.00
2022-10-29T04:43:43.885Z,0.00
2022-10-29T04:44:43.904Z,0.00
2022-10-29T04:46:43.962Z,0.00
2022-10-29T04:47:44.010Z,0.00
2022-10-29T04:48:44.062Z,0.00
2022-10-29T04:49:44.045Z,0.00
2022-10-29T04:50:44.073Z,0.00
2022-10-29T04:51:44.102Z,0.00
2022-10-29T04:52:44.127Z,0.00
2022-10-29T04:53:44.157Z,0.00
2022-10-29T04:54:44.184Z,0.00
2022-10-29T04:55:44.217Z,0.00
2022-10-29T04:56:44.238Z,0.00
2022-10-29T04:57:44.270Z,0.00
2022-10-29T04:58:44.295Z,0.00
2022-10-29T04:59:44.324Z,0.00
2022-10-29T05:00:44.404Z,0.00
2022-10-29T05:01:44.381Z,0.00
2022-10-29T05:02:44.407Z,0.00
2022-10-29T05:03:44.454Z,0.00
2022-10-29T05:04:44.463Z,0.00
2022-10-29T05:05:44.491Z,0.00
2022-10-29T05:06:44.519Z,0.00
2022-10-29T05:07:44.550Z,0.00
2022-10-29T05:08:44.577Z,0.00
2022-10-29T05:09:44.608Z,0.00
2022-10-29T05:10:44.632Z,0.00
2022-10-29T05:11:44.660Z,0.00
2022-10-29T05:12:44.686Z,0.00
2022-10-29T05:13:44.716Z,0.00
2022-10-29T05:14:44.745Z,0.00
2022-10-29T05:15:47.928Z,0.00
2022-10-29T05:16:44.799Z,0.00
2022-10-29T05:17:44.831Z,0.00
2022-10-29T05:18:44.855Z,0.00
2022-10-29T05:19:44.904Z,0.00
2022-10-29T05:20:44.912Z,0.00
2022-10-29T05:21:44.940Z,0.00
2022-10-29T05:22:44.966Z,0.00
2022-10-29T05:23:44.995Z,0.00
2022-10-29T05:24:45.023Z,0.00
2022-10-29T05:25:45.052Z,0.00
2022-10-29T05:26:45.079Z,0.00
2022-10-29T05:27:45.107Z,0.00
2022-10-29T05:28:45.135Z,0.00
2022-10-29T05:29:45.165Z,0.00
2022-10-29T05:30:45.192Z,0.00
2022-10-29T05:31:45.221Z,0.00
2022-10-29T05:32:45.248Z,0.00
2022-10-29T05:33:45.276Z,0.00
2022-10-29T05:34:45.303Z,0.00
2022-10-29T05:35:45.353Z,0.00
2022-10-29T05:36:45.357Z,0.00
2022-10-29T05:37:45.390Z,0.00
2022-10-29T05:38:45.565Z,0.00
2022-10-29T05:39:45.445Z,0.00
2022-10-29T05:40:45.647Z,0.00
2022-10-29T05:41:45.503Z,0.00
2022-10-29T05:42:55.274Z,0.00
2022-10-29T05:43:45.558Z,0.00
2022-10-29T05:44:45.584Z,0.00
2022-10-29T05:45:45.618Z,0.00
2022-10-29T05:46:45.642Z,0.00
2022-10-29T05:47:45.673Z,0.00
2022-10-29T05:48:45.699Z,0.00
2022-10-29T05:49:45.728Z,0.00
2022-10-29T05:50:45.756Z,0.00
2022-10-29T05:51:45.802Z,0.00
2022-10-29T05:52:45.810Z,4.00
2022-10-29T05:53:45.841Z,4.00
2022-10-29T05:54:45.867Z,0.00
2022-10-29T05:55:45.897Z,4.00
2022-10-29T05:56:45.923Z,8.00
2022-10-29T05:57:45.953Z,8.00
2022-10-29T05:58:48.604Z,8.00
2022-10-29T05:59:46.011Z,12.00
2022-10-29T06:00:46.035Z,12.00
2022-10-29T06:01:46.232Z,12.00
2022-10-29T06:02:46.134Z,16.00
2022-10-29T06:03:46.187Z,16.00
2022-10-29T06:04:46.152Z,16.00
2022-10-29T06:05:46.179Z,12.00
2022-10-29T06:06:46.358Z,16.00
2022-10-29T06:07:46.254Z,16.00
2022-10-29T06:08:46.274Z,16.00
2022-10-29T06:09:46.294Z,16.00
2022-10-29T06:10:46.319Z,20.00
2022-10-29T06:11:46.349Z,20.00
2022-10-29T06:12:46.374Z,20.00
2022-10-29T06:13:46.406Z,24.00
2022-10-29T06:14:46.433Z,24.00
2022-10-29T06:15:46.465Z,28.00
2022-10-29T06:16:46.489Z,24.00
2022-10-29T06:17:46.530Z,28.00
2022-10-29T06:18:46.543Z,28.00
2022-10-29T06:19:46.579Z,32.00
2022-10-29T06:20:46.600Z,40.00
2022-10-29T06:21:46.631Z,48.00
2022-10-29T06:22:46.662Z,56.00
2022-10-29T06:23:46.706Z,64.00
2022-10-29T06:24:46.716Z,76.00
2022-10-29T06:25:46.742Z,88.00
2022-10-29T06:26:46.775Z,108.00
2022-10-29T06:27:46.807Z,136.00
2022-10-29T06:28:46.828Z,176.00
2022-10-29T06:29:46.867Z,224.00
2022-10-29T06:30:46.886Z,272.00
2022-10-29T06:31:46.912Z,316.00
2022-10-29T06:32:46.943Z,340.00
2022-10-29T06:33:46.969Z,360.00
2022-10-29T06:34:46.998Z,380.00
2022-10-29T06:35:47.039Z,400.00
2022-10-29T06:36:47.055Z,420.00
2022-10-29T06:37:47.084Z,424.00
2022-10-29T06:38:47.113Z,436.00
2022-10-29T06:39:47.164Z,460.00
2022-10-29T06:40:47.168Z,492.00
2022-10-29T06:41:47.195Z,556.00
2022-10-29T06:42:47.224Z,652.00
2022-10-29T06:43:47.251Z,764.00
2022-10-29T06:44:47.282Z,876.00
2022-10-29T06:45:47.309Z,976.00
2022-10-29T06:46:47.339Z,1072.00
2022-10-29T06:47:47.367Z,1156.00
2022-10-29T06:48:47.394Z,1248.00
2022-10-29T06:49:47.421Z,1320.00
2022-10-29T06:50:47.451Z,1364.00
2022-10-29T06:51:47.478Z,1352.00
2022-10-29T06:52:47.506Z,1296.00
2022-10-29T06:53:47.535Z,1240.00
2022-10-29T06:54:47.565Z,1216.00
2022-10-29T06:55:47.612Z,1244.00
2022-10-29T06:56:47.620Z,1324.00
2022-10-29T06:57:47.647Z,1400.00
2022-10-29T06:58:47.676Z,1480.00
2022-10-29T06:59:47.705Z,1548.00
2022-10-29T07:00:47.888Z,1616.00
2022-10-29T07:01:47.830Z,1696.00
2022-10-29T07:02:47.793Z,1788.00
2022-10-29T07:03:47.817Z,1860.00
2022-10-29T07:04:47.846Z,1916.00
2022-10-29T07:05:47.873Z,1972.00
2022-10-29T07:06:47.906Z,2048.00
2022-10-29T07:07:47.934Z,2108.00
2022-10-29T07:08:47.960Z,2120.00
2022-10-29T07:09:47.987Z,2100.00
2022-10-29T07:10:48.020Z,2068.00
2022-10-29T07:11:48.064Z,2040.00
2022-10-29T07:12:48.073Z,2028.00
2022-10-29T07:13:48.100Z,2036.00
2022-10-29T07:14:48.131Z,2064.00
2022-10-29T07:15:48.158Z,2108.00
2022-10-29T07:16:48.187Z,2132.00
2022-10-29T07:17:48.214Z,2188.00
2022-10-29T07:18:48.247Z,2212.00
2022-10-29T07:19:48.272Z,2224.00
2022-10-29T07:20:48.301Z,2256.00
2022-10-29T07:21:48.329Z,2316.00
2022-10-29T07:22:48.362Z,2412.00
2022-10-29T07:23:48.386Z,2504.00
2022-10-29T07:24:48.414Z,2508.00
2022-10-29T07:25:48.442Z,2464.00
2022-10-29T07:26:48.472Z,2400.00
2022-10-29T07:27:48.648Z,2328.00
2022-10-29T07:28:48.529Z,2232.00
2022-10-29T07:29:48.555Z,2156.00
2022-10-29T07:30:48.587Z,2076.00
2022-10-29T07:31:48.613Z,2032.00
2022-10-29T07:32:48.645Z,2040.00
2022-10-29T07:33:48.672Z,2144.00
2022-10-29T07:34:48.699Z,2332.00
2022-10-29T07:35:48.727Z,2488.00
2022-10-29T07:36:48.759Z,2648.00
2022-10-29T07:37:48.783Z,2836.00
2022-10-29T07:38:48.812Z,3024.00
2022-10-29T07:39:48.841Z,3096.00
2022-10-29T07:40:48.874Z,3124.00
2022-10-29T07:41:48.900Z,3076.00
2022-10-29T07:42:48.928Z,3112.00
2022-10-29T07:43:48.975Z,3244.00
2022-10-29T07:44:48.984Z,3348.00
2022-10-29T07:45:49.012Z,3420.00
2022-10-29T07:46:49.045Z,3468.00
2022-10-29T07:47:49.071Z,3564.00
2022-10-29T07:48:49.100Z,3716.00
2022-10-29T07:49:49.127Z,4096.00
2022-10-29T07:50:49.162Z,4556.00
2022-10-29T07:51:49.190Z,4880.00
2022-10-29T07:52:49.215Z,5056.00
2022-10-29T07:53:49.241Z,5064.00
2022-10-29T07:54:49.272Z,5044.00
2022-10-29T07:55:49.300Z,5040.00
2022-10-29T07:56:49.329Z,4908.00
2022-10-29T07:57:49.357Z,4648.00
2022-10-29T07:58:49.388Z,4424.00
2022-10-29T07:59:49.435Z,4224.00
2022-10-29T08:00:49.505Z,4040.00
2022-10-29T08:01:49.605Z,3860.00
2022-10-29T08:02:49.506Z,3764.00
2022-10-29T08:03:49.535Z,3684.00
2022-10-29T08:04:49.560Z,3680.00
2022-10-29T08:05:55.200Z,3748.00
2022-10-29T08:06:49.622Z,3860.00
2022-10-29T08:07:49.649Z,3992.00
2022-10-29T08:08:49.680Z,4092.00
2022-10-29T08:09:49.706Z,4160.00
2022-10-29T08:10:49.741Z,4156.00
2022-10-29T08:11:49.765Z,4228.00
2022-10-29T08:12:49.798Z,4292.00
2022-10-29T08:13:49.821Z,4156.00
2022-10-29T08:14:49.853Z,4052.00
2022-10-29T08:15:49.896Z,4024.00
2022-10-29T08:16:49.907Z,3932.00
2022-10-29T08:17:49.937Z,3816.00
2022-10-29T08:18:49.968Z,3728.00
2022-10-29T08:19:49.998Z,3556.00
2022-10-29T08:20:50.024Z,3296.00
2022-10-29T08:21:50.056Z,3064.00
2022-10-29T08:22:50.083Z,2880.00
2022-10-29T08:23:50.112Z,2756.00
2022-10-29T08:24:50.142Z,2660.00
2022-10-29T08:25:50.170Z,2564.00
2022-10-29T08:26:50.203Z,2584.00
2022-10-29T08:27:50.261Z,2644.00
2022-10-29T08:28:50.259Z,2640.00
2022-10-29T08:29:50.285Z,2604.00
2022-10-29T08:30:50.316Z,2600.00
2022-10-29T08:31:50.363Z,2600.00
2022-10-29T08:32:50.375Z,2608.00
2022-10-29T08:33:50.403Z,2700.00
2022-10-29T08:34:50.435Z,2824.00
2022-10-29T08:35:50.461Z,2972.00
2022-10-29T08:36:50.493Z,3148.00
2022-10-29T08:37:50.521Z,3348.00
2022-10-29T08:38:50.551Z,3568.00
2022-10-29T08:39:50.579Z,3784.00
2022-10-29T08:40:50.610Z,3968.00
2022-10-29T08:41:50.636Z,4056.00
2022-10-29T08:42:50.668Z,4132.00
2022-10-29T08:43:50.754Z,4196.00
2022-10-29T08:44:50.726Z,4196.00
2022-10-29T08:45:50.758Z,4120.00
2022-10-29T08:46:50.802Z,4116.00
2022-10-29T08:47:50.833Z,4188.00
2022-10-29T08:48:50.844Z,4204.00
2022-10-29T08:49:50.873Z,4208.00
2022-10-29T08:50:50.904Z,4200.00
2022-10-29T08:51:50.932Z,4184.00
2022-10-29T08:52:58.944Z,4180.00
2022-10-29T08:54:10.275Z,4164.00
2022-10-29T08:54:51.021Z,4136.00
2022-10-29T08:55:51.049Z,4184.00
2022-10-29T08:56:51.080Z,4320.00
2022-10-29T08:57:51.107Z,4496.00
2022-10-29T08:58:51.139Z,4608.00
2022-10-29T08:59:51.168Z,4660.00
2022-10-29T09:00:51.226Z,4664.00
2022-10-29T09:01:51.378Z,4716.00
2022-10-29T09:02:51.258Z,4604.00
2022-10-29T09:03:51.303Z,4392.00
2022-10-29T09:04:51.315Z,4268.00
2022-10-29T09:05:51.343Z,4196.00
2022-10-29T09:06:51.378Z,4236.00
2022-10-29T09:07:51.403Z,4352.00
2022-10-29T09:08:51.434Z,4292.00
2022-10-29T09:09:51.461Z,4196.00
2022-10-29T09:10:51.493Z,4144.00
2022-10-29T09:11:51.525Z,4120.00
2022-10-29T09:12:51.553Z,4164.00
2022-10-29T09:13:51.581Z,4260.00
2022-10-29T09:14:51.612Z,4456.00
2022-10-29T09:15:56.392Z,4920.00
2022-10-29T09:16:51.670Z,5464.00
2022-10-29T09:17:51.701Z,6024.00
2022-10-29T09:18:51.731Z,6588.00
2022-10-29T09:19:51.778Z,7092.00
2022-10-29T09:20:51.790Z,7672.00
2022-10-29T09:21:51.823Z,8232.00
2022-10-29T09:22:51.848Z,8308.00
2022-10-29T09:23:51.874Z,7916.00
2022-10-29T09:24:51.908Z,7940.00
2022-10-29T09:25:51.936Z,7640.00
2022-10-29T09:26:51.968Z,7452.00
2022-10-29T09:27:51.997Z,7528.00
2022-10-29T09:28:52.029Z,7408.00
2022-10-29T09:29:52.056Z,7144.00
2022-10-29T09:30:52.088Z,6676.00
2022-10-29T09:31:52.128Z,6216.00
2022-10-29T09:33:54.311Z,5740.00
2022-10-29T09:34:52.209Z,5588.00
2022-10-29T09:35:52.257Z,5508.00
2022-10-29T09:36:52.269Z,5408.00
2022-10-29T09:37:52.301Z,5360.00
2022-10-29T09:38:52.328Z,5296.00
2022-10-29T09:39:52.361Z,5220.00
2022-10-29T09:40:52.388Z,5188.00
2022-10-29T09:41:52.418Z,5172.00
2022-10-29T09:42:52.450Z,5188.00
2022-10-29T09:43:52.479Z,5260.00
2022-10-29T09:44:52.510Z,5376.00
2022-10-29T09:45:52.549Z,5520.00
2022-10-29T09:46:52.570Z,5708.00
2022-10-29T09:47:52.602Z,5816.00
2022-10-29T09:48:52.725Z,5912.00
2022-10-29T09:49:52.659Z,5976.00
2022-10-29T09:50:52.691Z,5980.00
2022-10-29T09:51:52.743Z,5956.00
2022-10-29T09:52:52.760Z,5920.00
2022-10-29T09:53:52.779Z,5904.00
2022-10-29T09:54:52.912Z,5928.00
2022-10-29T09:55:52.892Z,6048.00
2022-10-29T09:56:54.951Z,6100.00
2022-10-29T09:57:52.951Z,6160.00
2022-10-29T09:58:52.932Z,6180.00
2022-10-29T09:59:52.961Z,6200.00
2022-10-29T10:00:52.993Z,6208.00
2022-10-29T10:01:53.070Z,6212.00
2022-10-29T10:02:53.230Z,6220.00
2022-10-29T10:03:53.129Z,6208.00
2022-10-29T10:04:53.114Z,6204.00
2022-10-29T10:05:53.145Z,6224.00
2022-10-29T10:06:53.176Z,6228.00
2022-10-29T10:07:53.476Z,6220.00
2022-10-29T10:08:53.236Z,6156.00
2022-10-29T10:09:53.263Z,6096.00
2022-10-29T10:10:53.296Z,5988.00
2022-10-29T10:11:53.329Z,5988.00
2022-10-29T10:12:53.358Z,6084.00
2022-10-29T10:13:53.436Z,6292.00
2022-10-29T10:14:53.420Z,6476.00
2022-10-29T10:15:53.447Z,6604.00
2022-10-29T10:16:53.479Z,6516.00
2022-10-29T10:17:53.588Z,6348.00
2022-10-29T10:18:53.541Z,6268.00
2022-10-29T10:19:53.570Z,6224.00
2022-10-29T10:20:53.599Z,6244.00
2022-10-29T10:21:53.630Z,6288.00
2022-10-29T10:22:53.975Z,6404.00
2022-10-29T10:23:53.708Z,6512.00
2022-10-29T10:24:53.724Z,6584.00
2022-10-29T10:25:53.820Z,6504.00
2022-10-29T10:26:53.786Z,6472.00
2022-10-29T10:27:54.259Z,6480.00
2022-10-29T10:28:53.845Z,6564.00
2022-10-29T10:29:53.876Z,6516.00
2022-10-29T10:30:53.907Z,6512.00
2022-10-29T10:31:53.941Z,6604.00
2022-10-29T10:32:54.379Z,6572.00
2022-10-29T10:33:54.002Z,6500.00
2022-10-29T10:34:54.031Z,6500.00
2022-10-29T10:35:54.064Z,6544.00
2022-10-29T10:36:54.092Z,6616.00
2022-10-29T10:37:54.405Z,6644.00
2022-10-29T10:38:54.153Z,6632.00
2022-10-29T10:39:54.204Z,6580.00
2022-10-29T10:40:54.214Z,6512.00
2022-10-29T10:41:54.247Z,6444.00
2022-10-29T10:42:54.276Z,6464.00
2022-10-29T10:43:54.309Z,6548.00
2022-10-29T10:44:54.339Z,6616.00
2022-10-29T10:45:54.370Z,6592.00
2022-10-29T10:46:54.403Z,6592.00
2022-10-29T10:47:54.804Z,6516.00
2022-10-29T10:48:54.461Z,6416.00
2022-10-29T10:49:54.493Z,6312.00
2022-10-29T10:50:54.522Z,6164.00
2022-10-29T10:51:54.556Z,5988.00
2022-10-29T10:52:54.917Z,5812.00
2022-10-29T10:53:54.671Z,5640.00
2022-10-29T10:54:54.651Z,5448.00
2022-10-29T10:55:54.702Z,5276.00
2022-10-29T10:56:54.708Z,5152.00
2022-10-29T10:57:54.742Z,5112.00
2022-10-29T10:58:54.772Z,5116.00
2022-10-29T10:59:54.803Z,5120.00
2022-10-29T11:00:54.916Z,5128.00
2022-10-29T11:01:54.976Z,5128.00
2022-10-29T11:02:55.324Z,5120.00
2022-10-29T11:03:54.929Z,5116.00
2022-10-29T11:04:54.957Z,5152.00
2022-10-29T11:05:54.989Z,5236.00
2022-10-29T11:06:55.024Z,5328.00
2022-10-29T11:07:55.394Z,5420.00
2022-10-29T11:08:55.080Z,5484.00
2022-10-29T11:09:55.117Z,5500.00
2022-10-29T11:10:55.143Z,5500.00
2022-10-29T11:11:58.837Z,5512.00
2022-10-29T11:12:55.204Z,5548.00
2022-10-29T11:13:55.239Z,5608.00
2022-10-29T11:14:55.266Z,5672.00
2022-10-29T11:15:55.301Z,5748.00
2022-10-29T11:16:55.329Z,5860.00
2022-10-29T11:17:55.778Z,5992.00
2022-10-29T11:18:55.391Z,6136.00
2022-10-29T11:19:55.425Z,6264.00
2022-10-29T11:20:55.452Z,6360.00
2022-10-29T11:21:55.486Z,6412.00
2022-10-29T11:22:55.899Z,6440.00
2022-10-29T11:23:55.548Z,6464.00
2022-10-29T11:24:55.577Z,6456.00
2022-10-29T11:25:55.611Z,6420.00
2022-10-29T11:26:55.647Z,6388.00
2022-10-29T11:27:55.694Z,6344.00
2022-10-29T11:28:55.703Z,6288.00
2022-10-29T11:29:55.733Z,6252.00
2022-10-29T11:30:55.767Z,6264.00
2022-10-29T11:31:55.797Z,6220.00
2022-10-29T11:32:56.292Z,6248.00
2022-10-29T11:33:55.860Z,6328.00
2022-10-29T11:34:55.891Z,6396.00
2022-10-29T11:35:58.819Z,6316.00
2022-10-29T11:36:55.951Z,6156.00
2022-10-29T11:37:56.168Z,6040.00
2022-10-29T11:38:56.014Z,5872.00
2022-10-29T11:39:56.048Z,5872.00
2022-10-29T11:40:56.076Z,5832.00
2022-10-29T11:41:56.108Z,5776.00
2022-10-29T11:42:56.139Z,5928.00
2022-10-29T11:43:56.189Z,5928.00
2022-10-29T11:44:56.199Z,5856.00
2022-10-29T11:45:56.233Z,5808.00
2022-10-29T11:46:56.264Z,5816.00
2022-10-29T11:47:56.579Z,5804.00
2022-10-29T11:48:56.324Z,5856.00
2022-10-29T11:49:56.358Z,5856.00
2022-10-29T11:50:56.389Z,5848.00
2022-10-29T11:51:56.421Z,5872.00
2022-10-29T11:52:56.635Z,5888.00
2022-10-29T11:53:56.484Z,5892.00
2022-10-29T11:54:56.513Z,5860.00
2022-10-29T11:55:56.546Z,5840.00
2022-10-29T11:56:56.576Z,5792.00
2022-10-29T11:57:56.609Z,5752.00
2022-10-29T11:58:56.637Z,5704.00
2022-10-29T11:59:56.689Z,5656.00
2022-10-29T12:00:56.701Z,5564.00
2022-10-29T12:01:56.798Z,5492.00
2022-10-29T12:02:57.098Z,5476.00
2022-10-29T12:03:56.827Z,5332.00
2022-10-29T12:04:56.827Z,5244.00
2022-10-29T12:05:56.858Z,5196.00
2022-10-29T12:06:56.887Z,5164.00
2022-10-29T12:07:57.364Z,5132.00
2022-10-29T12:08:56.952Z,5148.00
2022-10-29T12:09:56.983Z,5004.00
2022-10-29T12:10:57.014Z,4960.00
2022-10-29T12:11:57.046Z,4924.00
2022-10-29T12:12:57.076Z,4932.00
2022-10-29T12:13:57.108Z,4996.00
2022-10-29T12:14:57.139Z,5040.00
2022-10-29T12:15:57.190Z,5140.00
2022-10-29T12:16:57.202Z,5200.00
2022-10-29T12:17:57.560Z,5348.00
2022-10-29T12:18:57.263Z,5416.00
2022-10-29T12:19:57.382Z,5416.00
2022-10-29T12:20:57.326Z,5256.00
2022-10-29T12:21:57.359Z,5268.00
2022-10-29T12:23:02.520Z,5176.00
2022-10-29T12:23:57.423Z,5172.00
2022-10-29T12:24:57.450Z,5300.00
2022-10-29T12:25:57.484Z,5364.00
2022-10-29T12:26:57.513Z,5312.00
2022-10-29T12:27:57.549Z,5340.00
2022-10-29T12:28:57.575Z,5356.00
2022-10-29T12:29:57.617Z,5244.00
2022-10-29T12:30:57.639Z,5152.00
2022-10-29T12:31:57.691Z,5072.00
2022-10-29T12:32:58.075Z,5036.00
2022-10-29T12:33:57.735Z,4988.00
2022-10-29T12:34:57.763Z,4992.00
2022-10-29T12:35:57.892Z,5052.00
2022-10-29T12:36:58.020Z,5356.00
2022-10-29T12:37:58.195Z,5532.00
2022-10-29T12:38:57.887Z,5488.00
2022-10-29T12:39:57.924Z,5632.00
2022-10-29T12:40:57.950Z,5728.00
2022-10-29T12:41:57.983Z,5624.00
2022-10-29T12:42:58.013Z,5588.00
2022-10-29T12:43:58.048Z,5528.00
2022-10-29T12:44:58.079Z,5420.00
2022-10-29T12:46:58.142Z,5300.00
2022-10-29T12:47:58.599Z,5228.00
2022-10-29T12:48:58.206Z,5156.00
2022-10-29T12:49:58.235Z,5104.00
2022-10-29T12:50:58.265Z,5072.00